Chilcoot, California
Current Conditions -  °F | °C
As of 4:35 AM on Monday 20 Oct 2014 (Local Time) from KRTS Reporting Station
Clear Clear  
Wind Chill: 50°   Ceiling: Unl
Heat Index: 50°   Visibility: 10mi
Dew Point: 28°   Wind: 8mph
Humidity: 43%   Direction: 240°WSW
Pressure: 29.97"   Gusts: NA
Location:  39.8°N, 120.14°W
Report Text: KRTS 201135Z AUTO 24007KT 10SM CLR 10/M02 A2997 RMK AO2
Loading
Personal Weather Stations






























Interactive Weather Map
Tropical Storm Tracking
New forecast layout! Learn more

10-Day Weather Forecast

Advertisements
Track Severe Weather on mobile